Time;durP1;ratioP1;P1;durP2;ratioP2;P2;SDS_P1;SDS_P2;PMS_P1;PMS_P2;Temp;Humidity;BMP_temperature;BMP_pressure;BME280_temperature;BME280_humidity;BME280_pressure;Samples;Min_cycle;Max_cycle;Signal;HPM_P1;HPM_P2
2021/01/22 00:01:15;;;;;;;195.70;90.95;;;-1.60;99.90;;;;;;4954860;28;20047;-81
2021/01/22 00:03:40;;;;;;;140.48;64.38;;;-1.70;99.90;;;;;;4953925;28;20194;-81
2021/01/22 00:06:06;;;;;;;253.13;111.25;;;-1.80;99.90;;;;;;4970100;28;20031;-81
2021/01/22 00:08:32;;;;;;;86.35;40.28;;;-1.80;99.90;;;;;;4953518;28;20030;-81
2021/01/22 00:10:58;;;;;;;70.28;35.15;;;-1.80;99.90;;;;;;4954840;28;20035;-81
2021/01/22 00:13:23;;;;;;;130.52;61.25;;;-1.80;99.90;;;;;;4953761;28;20125;-82
2021/01/22 00:15:49;;;;;;;144.18;73.30;;;-1.80;99.90;;;;;;4954855;28;20027;-81
2021/01/22 00:18:14;;;;;;;104.60;45.55;;;-1.70;99.90;;;;;;4969752;28;20044;-82
2021/01/22 00:20:40;;;;;;;81.13;38.42;;;-1.80;99.90;;;;;;4973779;28;20493;-83
2021/01/22 00:23:06;;;;;;;52.45;22.88;;;-1.90;99.90;;;;;;4986945;28;20037;-82
2021/01/22 00:25:32;;;;;;;69.47;32.47;;;-1.90;99.90;;;;;;4972640;28;20056;-82
2021/01/22 00:27:57;;;;;;;44.78;20.35;;;-1.90;99.90;;;;;;4972870;28;20026;-82
2021/01/22 00:30:23;;;;;;;24.00;11.70;;;-1.90;99.90;;;;;;4972555;28;20034;-83
2021/01/22 00:32:49;;;;;;;25.77;12.80;;;-1.90;99.90;;;;;;4975058;28;20058;-81
2021/01/22 00:35:14;;;;;;;45.03;20.45;;;-1.80;99.90;;;;;;4977879;28;20117;-82
2021/01/22 00:37:40;;;;;;;30.42;14.75;;;-1.80;99.90;;;;;;4977885;28;20428;-82
2021/01/22 00:40:07;;;;;;;29.77;14.35;;;-1.80;99.90;;;;;;4976301;28;20026;-82
2021/01/22 00:42:34;;;;;;;21.55;11.45;;;-1.80;99.90;;;;;;4977810;28;20023;-82
2021/01/22 00:45:00;;;;;;;24.45;11.48;;;-1.80;99.90;;;;;;4976639;28;20038;-82
2021/01/22 00:47:26;;;;;;;22.40;11.10;;;-1.70;99.90;;;;;;4968139;28;20031;-82
2021/01/22 00:49:51;;;;;;;20.50;10.23;;;-1.60;99.90;;;;;;4957043;28;20023;-81
2021/01/22 00:52:18;;;;;;;24.88;12.75;;;-1.50;99.90;;;;;;4973450;28;20038;-81
2021/01/22 00:54:44;;;;;;;23.75;12.45;;;-1.50;99.90;;;;;;4957258;28;20466;-82
2021/01/22 00:57:10;;;;;;;28.40;11.60;;;-1.40;99.90;;;;;;4958393;28;20085;-81
2021/01/22 00:59:35;;;;;;;47.03;21.17;;;-1.40;99.90;;;;;;4973294;28;20020;-81
2021/01/22 01:02:01;;;;;;;79.57;35.78;;;-1.50;99.90;;;;;;4957228;28;20094;-82
2021/01/22 01:04:27;;;;;;;80.28;39.42;;;-1.60;99.90;;;;;;4956778;28;20027;-81
2021/01/22 01:06:52;;;;;;;84.25;38.83;;;-1.70;99.90;;;;;;4958442;28;20074;-81
2021/01/22 01:09:18;;;;;;;93.93;40.85;;;-1.80;99.90;;;;;;4957957;28;20551;-82
2021/01/22 01:11:44;;;;;;;83.20;39.67;;;-1.90;99.90;;;;;;4956729;28;20058;-81
2021/01/22 01:14:09;;;;;;;81.95;40.42;;;-2.10;99.90;;;;;;4957935;28;20039;-82
2021/01/22 01:16:35;;;;;;;68.75;32.08;;;-2.10;99.90;;;;;;4957762;28;20035;-81
2021/01/22 01:19:01;;;;;;;68.35;30.17;;;-2.10;99.90;;;;;;4959648;28;20393;-81
2021/01/22 01:21:27;;;;;;;72.65;32.90;;;-2.20;99.90;;;;;;4956626;29;20530;-82
2021/01/22 01:23:53;;;;;;;67.85;28.52;;;-2.20;99.90;;;;;;4957638;29;20117;-81
2021/01/22 01:26:20;;;;;;;57.58;24.23;;;-2.20;99.90;;;;;;4957521;29;20035;-82
2021/01/22 01:28:46;;;;;;;47.00;22.88;;;-2.20;99.90;;;;;;4957549;28;20074;-81
2021/01/22 01:31:11;;;;;;;26.92;11.43;;;-2.30;99.90;;;;;;4957629;28;20422;-81
2021/01/22 01:33:37;;;;;;;28.42;13.60;;;-2.20;99.90;;;;;;4957450;28;20023;-81
2021/01/22 01:36:03;;;;;;;28.05;12.52;;;-2.10;99.90;;;;;;4956611;29;20023;-81
2021/01/22 01:38:29;;;;;;;31.85;15.48;;;-2.10;99.90;;;;;;4956329;29;20497;-82
2021/01/22 01:40:55;;;;;;;31.17;14.55;;;-2.00;99.90;;;;;;4957241;29;20046;-81
2021/01/22 01:43:20;;;;;;;37.83;17.92;;;-2.00;99.90;;;;;;4955975;28;20030;-81
2021/01/22 01:45:46;;;;;;;54.47;21.92;;;-2.00;99.90;;;;;;4956200;29;20061;-82
2021/01/22 01:48:12;;;;;;;54.38;25.48;;;-2.00;99.90;;;;;;4971538;28;20031;-82
2021/01/22 01:50:39;;;;;;;60.10;25.08;;;-2.10;99.90;;;;;;4973186;28;20031;-83
2021/01/22 01:53:06;;;;;;;57.67;29.10;;;-2.10;99.90;;;;;;4976254;28;20086;-82
2021/01/22 01:55:33;;;;;;;57.95;23.42;;;-2.10;99.90;;;;;;4976411;28;20038;-82
2021/01/22 01:58:02;;;;;;;52.15;24.38;;;-2.20;99.90;;;;;;4976400;28;20542;-81
2021/01/22 02:00:28;;;;;;;57.60;27.02;;;-2.10;99.90;;;;;;4975816;28;20038;-82
2021/01/22 02:02:53;;;;;;;51.50;23.98;;;-2.20;99.90;;;;;;4976077;28;20027;-81
2021/01/22 02:05:19;;;;;;;25.60;13.52;;;-2.10;99.90;;;;;;4976114;28;20500;-81
2021/01/22 02:07:46;;;;;;;25.58;11.77;;;-2.10;99.90;;;;;;4975115;28;20027;-82
2021/01/22 02:10:12;;;;;;;20.15;10.45;;;-2.10;99.90;;;;;;4976233;28;20029;-81
2021/01/22 02:12:39;;;;;;;20.45;11.38;;;-2.10;99.90;;;;;;4975181;28;20033;-81
2021/01/22 02:15:12;;;;;;;21.35;9.93;;;-1.90;99.90;;;;;;4976326;28;20072;-81
2021/01/22 02:17:43;;;;;;;15.27;8.68;;;-1.90;99.90;;;;;;4961968;28;20027;-82
2021/01/22 02:20:23;;;;;;;17.52;8.35;;;-1.80;99.90;;;;;;4953523;28;20496;-82
2021/01/22 02:22:50;;;;;;;19.30;8.73;;;-1.70;99.90;;;;;;4953321;29;20382;-81
2021/01/22 02:25:21;;;;;;;19.23;9.90;;;-1.50;99.90;;;;;;4954368;28;20082;-82
2021/01/22 02:27:47;;;;;;;20.15;9.23;;;-1.40;99.90;;;;;;4954763;29;20066;-81
2021/01/22 02:30:13;;;;;;;21.38;10.00;;;-1.30;99.90;;;;;;4954624;28;20051;-82
2021/01/22 02:32:46;;;;;;;20.67;10.32;;;-1.20;99.90;;;;;;4955260;28;20565;-82
2021/01/22 02:35:16;;;;;;;19.63;10.88;;;-1.10;99.90;;;;;;4956297;28;20078;-82
2021/01/22 02:37:46;;;;;;;54.70;22.52;;;-1.00;99.90;;;;;;4956396;28;20023;-81
2021/01/22 02:40:13;;;;;;;78.90;33.08;;;-1.00;99.90;;;;;;4956115;28;20071;-82
2021/01/22 02:42:41;;;;;;;22.65;11.43;;;-1.20;99.90;;;;;;4956081;28;20074;-81
2021/01/22 02:45:09;;;;;;;28.65;13.05;;;-1.10;99.90;;;;;;4954868;28;20031;-81
2021/01/22 02:47:36;;;;;;;24.13;12.20;;;-0.90;99.90;;;;;;4968537;28;20476;-82
2021/01/22 02:50:06;;;;;;;19.83;10.45;;;-0.80;99.90;;;;;;4975436;28;20105;-81
2021/01/22 02:52:31;;;;;;;18.52;10.45;;;-0.70;99.90;;;;;;4974406;28;20050;-81
2021/01/22 02:54:57;;;;;;;14.40;9.25;;;-0.60;99.90;;;;;;4975358;28;20027;-81
2021/01/22 02:57:52;;;;;;;18.95;9.88;;;-0.60;99.90;;;;;;4975107;28;20059;-81
2021/01/22 03:00:23;;;;;;;13.82;9.52;;;-0.50;99.90;;;;;;4975449;28;20110;-81
2021/01/22 03:03:11;;;;;;;15.30;9.73;;;-0.40;99.90;;;;;;4975458;28;20361;-81
2021/01/22 03:05:38;;;;;;;18.95;9.40;;;-0.20;99.90;;;;;;4975177;28;20037;-81
2021/01/22 03:08:13;;;;;;;18.25;9.18;;;-0.20;99.90;;;;;;4973703;28;20026;-81
2021/01/22 03:10:40;;;;;;;16.38;8.75;;;0.00;99.90;;;;;;4975438;28;20524;-81
2021/01/22 03:13:07;;;;;;;21.33;10.10;;;0.00;99.90;;;;;;4975076;28;20054;-81
2021/01/22 03:15:34;;;;;;;25.83;12.45;;;0.10;99.90;;;;;;4973473;28;20018;-82
2021/01/22 03:18:11;;;;;;;47.08;22.33;;;0.10;99.90;;;;;;4990063;28;20030;-81
2021/01/22 03:20:36;;;;;;;31.88;15.15;;;-0.10;99.90;;;;;;4989577;28;20035;-81
2021/01/22 03:23:03;;;;;;;33.00;14.60;;;-0.20;99.90;;;;;;4974625;28;20076;-81
2021/01/22 03:25:30;;;;;;;21.60;11.02;;;-0.20;99.90;;;;;;4974687;28;20019;-81
2021/01/22 03:27:56;;;;;;;21.67;10.75;;;-0.30;99.90;;;;;;4989648;28;20035;-81
2021/01/22 03:30:22;;;;;;;23.33;11.45;;;-0.30;99.90;;;;;;4974559;28;20477;-82
2021/01/22 03:32:47;;;;;;;20.73;11.00;;;-0.30;99.90;;;;;;4989655;28;20037;-81
2021/01/22 03:35:13;;;;;;;19.95;10.38;;;-0.30;99.90;;;;;;4973207;28;20023;-82
2021/01/22 03:37:39;;;;;;;20.77;9.20;;;-0.20;99.90;;;;;;4974591;28;20029;-82
2021/01/22 03:40:05;;;;;;;17.27;9.45;;;-0.20;99.90;;;;;;4956920;28;20042;-81
2021/01/22 03:42:31;;;;;;;22.05;10.98;;;-0.10;99.90;;;;;;4955252;28;20034;-81
2021/01/22 03:44:56;;;;;;;19.05;10.93;;;-0.20;99.90;;;;;;4955404;28;20023;-81
2021/01/22 03:47:22;;;;;;;19.23;10.00;;;-0.20;99.90;;;;;;4955064;28;20054;-81
2021/01/22 03:49:48;;;;;;;18.10;10.00;;;-0.10;99.90;;;;;;4955173;28;20051;-81
2021/01/22 03:52:13;;;;;;;33.28;16.70;;;0.00;99.90;;;;;;4955126;28;20489;-81
2021/01/22 03:54:39;;;;;;;35.35;18.63;;;-0.10;99.90;;;;;;4955261;28;20023;-82
2021/01/22 03:57:05;;;;;;;61.50;24.60;;;-0.10;99.90;;;;;;4970240;28;20034;-81
2021/01/22 03:59:30;;;;;;;54.30;23.55;;;-0.30;99.90;;;;;;4953713;28;20054;-81
2021/01/22 04:01:56;;;;;;;53.83;21.23;;;-0.40;99.90;;;;;;4954026;28;20031;-81
2021/01/22 04:04:22;;;;;;;41.50;17.38;;;-0.50;99.90;;;;;;4953644;28;20062;-81
2021/01/22 04:06:47;;;;;;;60.55;24.75;;;-0.50;99.90;;;;;;4959975;28;20034;-82
2021/01/22 04:09:13;;;;;;;35.50;18.58;;;-0.50;99.90;;;;;;4972597;28;20026;-81
2021/01/22 04:11:38;;;;;;;58.40;23.75;;;-0.40;99.90;;;;;;4974164;28;20031;-82
2021/01/22 04:14:04;;;;;;;103.57;35.33;;;-0.40;99.90;;;;;;4974027;28;20472;-82
2021/01/22 04:16:30;;;;;;;83.40;32.38;;;-0.50;99.90;;;;;;4972709;28;20027;-83
2021/01/22 04:18:55;;;;;;;66.05;24.27;;;-0.40;99.90;;;;;;4974105;28;20505;-82
2021/01/22 04:21:22;;;;;;;70.20;28.65;;;-0.40;99.90;;;;;;4968550;28;20310;-83
2021/01/22 04:23:47;;;;;;;63.30;25.30;;;-0.40;99.90;;;;;;4954598;28;20031;-82
2021/01/22 04:26:13;;;;;;;23.65;10.98;;;-0.30;99.90;;;;;;4954728;28;20030;-82
2021/01/22 04:28:40;;;;;;;28.73;13.80;;;0.10;99.90;;;;;;4969303;28;20474;-82
2021/01/22 04:31:05;;;;;;;46.10;21.45;;;0.10;99.90;;;;;;4954575;28;20015;-82
2021/01/22 04:33:31;;;;;;;61.92;24.30;;;0.20;99.90;;;;;;4953585;28;20074;-82
2021/01/22 04:35:56;;;;;;;73.35;28.92;;;0.10;99.90;;;;;;4954519;28;20031;-81
2021/01/22 04:38:22;;;;;;;74.57;27.90;;;0.00;99.90;;;;;;4960013;28;20038;-82
2021/01/22 04:40:49;;;;;;;76.43;32.05;;;-0.10;99.90;;;;;;4972646;28;20117;-84
2021/01/22 04:43:15;;;;;;;91.75;35.05;;;-0.10;99.90;;;;;;4974050;28;20035;-84
2021/01/22 04:45:41;;;;;;;40.05;17.10;;;-0.10;99.90;;;;;;4982418;28;20066;-85
2021/01/22 04:48:08;;;;;;;38.45;20.67;;;0.30;99.90;;;;;;4993029;28;20061;-84
2021/01/22 04:50:34;;;;;;;46.20;22.45;;;0.60;99.90;;;;;;4993135;28;20018;-84
2021/01/22 04:53:07;;;;;;;45.50;22.00;;;0.70;99.90;;;;;;4961500;28;20031;-84
2021/01/22 04:55:35;;;;;;;61.55;25.73;;;0.70;99.90;;;;;;4954387;28;20106;-84
2021/01/22 04:58:06;;;;;;;67.22;32.03;;;0.70;99.90;;;;;;4954445;28;20389;-84
2021/01/22 05:00:32;;;;;;;67.88;31.45;;;0.70;99.90;;;;;;4953876;28;20052;-82
2021/01/22 05:02:58;;;;;;;28.38;13.15;;;0.70;99.90;;;;;;4954809;28;20366;-82
2021/01/22 05:05:24;;;;;;;17.35;8.40;;;0.80;99.90;;;;;;4954418;28;20019;-82
2021/01/22 05:07:50;;;;;;;22.92;11.98;;;1.00;99.90;;;;;;4970353;28;20029;-81
2021/01/22 05:10:16;;;;;;;12.75;7.40;;;1.30;99.90;;;;;;5008227;28;20022;-82
2021/01/22 05:12:42;;;;;;;22.55;11.60;;;1.50;99.90;;;;;;4992011;28;20102;-82
2021/01/22 05:15:12;;;;;;;28.38;14.02;;;1.60;99.90;;;;;;4991833;28;20050;-82
2021/01/22 05:17:52;;;;;;;56.42;23.42;;;1.70;99.90;;;;;;4991650;28;20036;-82
2021/01/22 05:20:30;;;;;;;73.43;29.33;;;1.90;99.90;;;;;;4996370;28;20035;-82
2021/01/22 05:22:56;;;;;;;24.88;14.07;;;2.10;99.90;;;;;;4965712;28;20102;-82
2021/01/22 05:25:22;;;;;;;104.57;38.65;;;2.20;99.90;;;;;;4956438;28;20544;-82
2021/01/22 05:27:52;;;;;;;130.77;49.58;;;2.30;99.90;;;;;;4956491;28;20393;-82
2021/01/22 05:30:19;;;;;;;115.28;45.45;;;2.40;99.90;;;;;;4974456;28;20106;-82
2021/01/22 05:32:45;;;;;;;38.90;16.63;;;2.60;99.90;;;;;;4975366;28;20027;-82
2021/01/22 05:35:11;;;;;;;55.28;23.88;;;2.50;99.90;;;;;;4976754;28;20450;-82
2021/01/22 05:37:50;;;;;;;94.43;36.20;;;2.50;99.90;;;;;;4977042;28;20034;-83
2021/01/22 05:40:17;;;;;;;31.10;13.95;;;2.70;99.90;;;;;;4976568;28;20473;-81
2021/01/22 05:42:56;;;;;;;38.63;15.00;;;2.80;99.90;;;;;;4976660;28;20027;-82
2021/01/22 05:45:42;;;;;;;28.13;12.80;;;2.90;99.90;;;;;;4976720;28;20027;-82
2021/01/22 05:48:18;;;;;;;93.85;31.83;;;3.10;99.90;;;;;;4977012;28;20384;-82
2021/01/22 05:50:45;;;;;;;119.20;42.70;;;3.20;99.90;;;;;;4975382;28;20408;-81
2021/01/22 05:53:13;;;;;;;19.00;8.48;;;3.30;99.90;;;;;;4972099;28;20027;-82
2021/01/22 05:55:38;;;;;;;15.80;8.13;;;3.30;99.90;;;;;;4976417;28;20065;-82
2021/01/22 05:58:04;;;;;;;53.53;17.33;;;3.40;99.90;;;;;;4976856;28;20362;-82
2021/01/22 06:00:30;;;;;;;82.75;28.77;;;3.30;99.90;;;;;;4975008;28;20471;-82
2021/01/22 06:02:55;;;;;;;70.90;25.67;;;3.40;99.90;;;;;;4975116;28;20113;-81
2021/01/22 06:05:22;;;;;;;63.65;21.80;;;3.40;99.90;;;;;;4974988;28;20050;-82
2021/01/22 06:08:08;;;;;;;97.32;34.80;;;3.40;99.90;;;;;;4975325;28;20051;-81
2021/01/22 06:10:39;;;;;;;60.50;23.08;;;3.40;99.90;;;;;;4974876;28;20019;-82
2021/01/22 06:13:08;;;;;;;41.25;16.25;;;3.30;99.90;;;;;;4974842;28;20051;-81
2021/01/22 06:15:35;;;;;;;110.05;43.38;;;3.40;99.90;;;;;;4976106;28;20066;-82
2021/01/22 06:18:02;;;;;;;108.15;33.85;;;3.40;99.90;;;;;;4976051;28;20114;-82
2021/01/22 06:20:32;;;;;;;128.95;47.47;;;3.40;99.90;;;;;;4971021;28;20030;-82
2021/01/22 06:23:12;;;;;;;205.93;81.63;;;3.40;99.90;;;;;;4974630;28;20126;-82
2021/01/22 06:25:39;;;;;;;230.15;90.78;;;3.40;99.90;;;;;;4976182;28;20023;-80
2021/01/22 06:28:08;;;;;;;169.93;70.97;;;3.40;99.90;;;;;;4974609;28;20029;-81
2021/01/22 06:30:35;;;;;;;241.20;101.88;;;3.40;99.90;;;;;;4975870;28;20033;-81
2021/01/22 06:33:02;;;;;;;206.57;88.60;;;3.40;99.90;;;;;;4974625;28;20038;-81
2021/01/22 06:35:33;;;;;;;99.63;43.83;;;3.30;99.90;;;;;;4974467;28;20022;-81
2021/01/22 06:38:00;;;;;;;124.40;47.67;;;3.20;99.90;;;;;;4972540;28;20030;-81
2021/01/22 06:40:26;;;;;;;117.60;45.67;;;3.20;99.90;;;;;;4992647;28;20034;-82
2021/01/22 06:42:53;;;;;;;44.95;18.10;;;3.10;99.90;;;;;;4994812;28;20026;-81
2021/01/22 06:45:20;;;;;;;71.80;28.08;;;3.10;99.90;;;;;;4994691;28;20072;-81
2021/01/22 06:48:03;;;;;;;116.07;42.42;;;3.10;99.90;;;;;;4993748;28;20065;-81
2021/01/22 06:50:30;;;;;;;75.88;33.85;;;3.10;99.90;;;;;;4982387;28;20383;-81
2021/01/22 06:53:17;;;;;;;73.35;30.00;;;3.00;99.90;;;;;;4974494;28;21059;-80
2021/01/22 06:55:51;;;;;;;61.88;25.83;;;2.90;99.90;;;;;;4984469;28;20030;-82
2021/01/22 06:58:28;;;;;;;78.50;27.40;;;2.80;99.90;;;;;;4981515;28;20117;-81
2021/01/22 07:00:56;;;;;;;128.52;46.10;;;2.90;99.90;;;;;;4977337;28;20133;-81
2021/01/22 07:03:37;;;;;;;48.97;20.85;;;2.80;99.90;;;;;;4980445;28;20073;-81
2021/01/22 07:06:03;;;;;;;33.95;13.93;;;2.90;99.90;;;;;;4974144;28;20047;-81
2021/01/22 07:08:55;;;;;;;39.90;17.17;;;2.90;99.90;;;;;;4973807;28;20038;-81
2021/01/22 07:11:22;;;;;;;63.60;22.10;;;3.00;99.90;;;;;;4974180;28;20033;-82
2021/01/22 07:13:48;;;;;;;88.97;35.15;;;3.20;99.90;;;;;;4973927;28;20026;-82
2021/01/22 07:16:17;;;;;;;117.20;51.25;;;3.30;99.90;;;;;;4990202;28;20027;-81
2021/01/22 07:18:52;;;;;;;190.18;78.35;;;3.30;99.90;;;;;;4974011;28;20384;-81
2021/01/22 07:21:44;;;;;;;181.38;76.28;;;3.40;99.90;;;;;;4974269;28;20042;-82
2021/01/22 07:24:15;;;;;;;95.63;40.05;;;3.50;99.90;;;;;;4978942;28;20022;-81
2021/01/22 07:26:48;;;;;;;56.13;22.58;;;3.60;99.90;;;;;;4982496;28;20026;-82
2021/01/22 07:29:25;;;;;;;21.33;10.27;;;3.70;99.90;;;;;;4981869;28;20015;-82
2021/01/22 07:32:01;;;;;;;29.92;12.50;;;3.90;99.90;;;;;;4979509;28;20069;-81
2021/01/22 07:34:46;;;;;;;56.90;19.88;;;4.00;99.90;;;;;;4982764;28;20443;-81
2021/01/22 07:37:17;;;;;;;25.00;11.00;;;4.10;99.90;;;;;;4979685;28;20070;-82
2021/01/22 07:39:44;;;;;;;22.63;10.25;;;4.20;99.90;;;;;;4978623;28;20023;-82
2021/01/22 07:42:10;;;;;;;20.20;9.07;;;4.30;99.90;;;;;;4995034;28;20114;-82
2021/01/22 07:44:37;;;;;;;23.25;10.93;;;4.30;99.90;;;;;;4983476;28;20026;-82
2021/01/22 07:47:04;;;;;;;29.65;10.50;;;4.40;99.90;;;;;;4982592;28;20365;-82
2021/01/22 07:49:30;;;;;;;30.65;14.85;;;4.40;99.90;;;;;;4963271;28;20081;-82
2021/01/22 07:52:01;;;;;;;24.63;10.00;;;4.50;99.90;;;;;;4965064;28;20094;-82
2021/01/22 07:54:27;;;;;;;46.15;18.80;;;4.60;99.90;;;;;;4988137;28;20129;-81
2021/01/22 07:56:53;;;;;;;55.65;23.05;;;4.60;99.90;;;;;;4974449;28;20097;-81
2021/01/22 07:59:18;;;;;;;32.20;15.85;;;4.60;99.90;;;;;;4973933;28;21379;-82
2021/01/22 08:01:44;;;;;;;16.95;9.32;;;4.60;99.90;;;;;;4973296;28;20035;-82
2021/01/22 08:04:10;;;;;;;18.65;9.70;;;4.70;99.90;;;;;;4975376;28;20046;-82
2021/01/22 08:06:46;;;;;;;15.63;7.82;;;4.70;99.90;;;;;;4993351;28;20105;-82
2021/01/22 08:09:12;;;;;;;12.18;6.80;;;4.70;99.90;;;;;;4992095;28;20034;-82
2021/01/22 08:11:39;;;;;;;13.32;8.07;;;4.80;99.90;;;;;;4991806;28;20066;-82
2021/01/22 08:14:05;;;;;;;17.15;8.10;;;4.80;99.90;;;;;;4992052;28;20033;-81
2021/01/22 08:16:31;;;;;;;16.83;9.02;;;4.80;99.90;;;;;;4993385;28;20023;-82
2021/01/22 08:18:57;;;;;;;10.55;6.57;;;4.80;99.90;;;;;;4992598;28;20444;-82
2021/01/22 08:21:27;;;;;;;13.70;7.40;;;4.90;99.90;;;;;;4975457;28;20069;-81
2021/01/22 08:23:53;;;;;;;14.15;8.15;;;4.90;99.90;;;;;;4971635;28;20026;-82
2021/01/22 08:26:18;;;;;;;16.08;9.18;;;5.00;99.90;;;;;;4972051;28;20023;-82
2021/01/22 08:28:47;;;;;;;16.98;10.13;;;5.00;99.90;;;;;;4971538;28;20019;-81
2021/01/22 08:31:13;;;;;;;26.17;13.20;;;5.00;99.90;;;;;;4987362;28;20023;-81
2021/01/22 08:33:39;;;;;;;24.70;13.10;;;5.00;99.90;;;;;;4971704;28;20037;-81
2021/01/22 08:36:06;;;;;;;44.92;20.10;;;5.10;99.90;;;;;;4973491;28;20050;-82
2021/01/22 08:38:33;;;;;;;30.17;15.70;;;5.10;99.90;;;;;;4964655;28;20034;-82
2021/01/22 08:40:59;;;;;;;24.58;13.35;;;5.30;99.90;;;;;;4964753;28;20460;-81
2021/01/22 08:43:25;;;;;;;24.20;13.00;;;5.30;99.90;;;;;;4961721;28;20089;-82
2021/01/22 08:46:06;;;;;;;131.65;54.72;;;5.30;99.90;;;;;;4963640;28;20023;-82
2021/01/22 08:48:33;;;;;;;24.83;12.65;;;5.40;99.90;;;;;;4966094;28;20027;-81
2021/01/22 08:51:02;;;;;;;24.42;14.40;;;5.40;99.90;;;;;;4969517;28;20065;-81
2021/01/22 08:53:28;;;;;;;49.85;25.73;;;5.60;99.90;;;;;;4979055;28;20121;-82
2021/01/22 08:56:13;;;;;;;54.53;24.52;;;5.70;99.90;;;;;;4981867;28;20055;-82
2021/01/22 08:59:13;;;;;;;36.30;18.92;;;5.80;99.90;;;;;;4982203;28;20034;-82
2021/01/22 09:01:54;;;;;;;34.30;20.52;;;5.90;99.90;;;;;;4954539;28;20053;-82
2021/01/22 09:04:27;;;;;;;57.47;26.98;;;6.10;99.90;;;;;;4974665;28;20141;-82
2021/01/22 09:06:55;;;;;;;43.88;18.10;;;6.30;99.90;;;;;;4976365;28;20026;-81
2021/01/22 09:09:40;;;;;;;22.55;12.13;;;6.40;99.90;;;;;;4978010;28;20031;-82
2021/01/22 09:12:09;;;;;;;20.15;8.68;;;6.50;99.90;;;;;;4977143;28;20089;-82
2021/01/22 09:14:56;;;;;;;14.75;6.68;;;6.60;98.90;;;;;;4977120;28;20035;-82
2021/01/22 09:17:27;;;;;;;14.23;6.85;;;6.70;97.70;;;;;;4980766;28;20551;-82
2021/01/22 09:20:00;;;;;;;12.13;6.72;;;6.80;96.20;;;;;;4987905;28;20019;-82
2021/01/22 09:22:28;;;;;;;24.38;13.90;;;6.90;95.00;;;;;;4984765;28;20031;-82
2021/01/22 09:24:54;;;;;;;39.33;25.08;;;7.10;93.30;;;;;;4987984;28;20089;-82
2021/01/22 09:27:20;;;;;;;26.40;17.77;;;7.10;91.90;;;;;;4983913;28;20370;-82
2021/01/22 09:29:45;;;;;;;23.48;12.20;;;7.20;91.40;;;;;;4988509;28;20081;-82
2021/01/22 09:32:11;;;;;;;23.98;12.45;;;7.20;90.70;;;;;;4996156;28;20030;-82
2021/01/22 09:34:37;;;;;;;20.35;10.73;;;7.20;90.10;;;;;;4996263;28;20097;-82
2021/01/22 09:37:03;;;;;;;24.60;11.50;;;7.20;90.30;;;;;;4996282;28;20105;-82
2021/01/22 09:39:29;;;;;;;22.83;12.10;;;7.20;91.00;;;;;;4996209;28;20550;-82
2021/01/22 09:41:55;;;;;;;32.85;15.73;;;7.10;90.40;;;;;;4991472;28;20050;-82
2021/01/22 09:44:20;;;;;;;31.38;13.68;;;7.10;90.20;;;;;;4976736;28;20377;-83
2021/01/22 09:46:46;;;;;;;26.77;14.10;;;7.10;90.90;;;;;;4976579;28;20022;-83
2021/01/22 09:49:12;;;;;;;30.27;16.00;;;7.00;90.90;;;;;;4975209;28;20384;-83
2021/01/22 09:51:38;;;;;;;37.83;16.35;;;7.00;91.20;;;;;;4975419;28;20023;-82
2021/01/22 09:54:03;;;;;;;28.75;15.82;;;7.00;91.30;;;;;;4976838;28;20033;-83
2021/01/22 09:56:29;;;;;;;27.25;15.68;;;7.00;92.70;;;;;;4976378;28;20031;-84
2021/01/22 09:58:55;;;;;;;36.60;18.38;;;7.00;92.80;;;;;;4975054;28;20034;-84
2021/01/22 10:01:20;;;;;;;26.90;17.88;;;7.10;92.70;;;;;;4976194;28;20039;-83
2021/01/22 10:03:46;;;;;;;27.65;18.33;;;7.20;92.20;;;;;;4974587;28;20034;-84
2021/01/22 10:06:14;;;;;;;37.08;19.33;;;7.20;91.20;;;;;;4977644;28;20460;-84
2021/01/22 10:08:39;;;;;;;23.73;15.50;;;7.30;90.40;;;;;;4988451;28;20034;-85
2021/01/22 10:11:05;;;;;;;37.58;24.30;;;7.40;89.40;;;;;;4983056;28;20101;-84
2021/01/22 10:13:31;;;;;;;47.05;20.50;;;7.50;88.90;;;;;;4976076;28;20031;-84
2021/01/22 10:15:57;;;;;;;42.83;21.92;;;7.60;87.60;;;;;;4990933;28;20035;-84
2021/01/22 10:18:23;;;;;;;28.00;13.68;;;7.60;87.00;;;;;;4975903;28;20030;-84
2021/01/22 10:20:50;;;;;;;25.13;12.48;;;7.60;86.80;;;;;;4975954;28;20041;-83
2021/01/22 10:23:16;;;;;;;26.10;13.07;;;7.80;86.30;;;;;;4974535;28;20023;-84
2021/01/22 10:25:42;;;;;;;25.38;10.65;;;7.80;85.60;;;;;;4976773;28;20072;-83
2021/01/22 10:28:07;;;;;;;35.42;19.13;;;8.00;84.70;;;;;;4988526;28;20118;-84
2021/01/22 10:30:33;;;;;;;16.42;7.93;;;8.10;83.70;;;;;;4993517;28;20027;-83
2021/01/22 10:32:59;;;;;;;15.57;7.88;;;8.30;82.40;;;;;;4978958;28;20042;-83
2021/01/22 10:35:24;;;;;;;18.15;8.60;;;8.50;81.40;;;;;;4973260;28;20026;-84
2021/01/22 10:37:50;;;;;;;26.50;12.55;;;8.60;79.40;;;;;;4975444;28;20030;-84
2021/01/22 10:40:16;;;;;;;12.45;6.85;;;8.70;79.20;;;;;;4993974;28;20022;-84
2021/01/22 10:42:42;;;;;;;28.60;12.43;;;8.80;78.10;;;;;;4986446;28;20031;-83
2021/01/22 10:45:08;;;;;;;23.05;11.30;;;8.80;76.90;;;;;;4974115;28;20031;-83
2021/01/22 10:47:34;;;;;;;11.57;6.45;;;8.80;76.90;;;;;;4972867;28;20015;-83
2021/01/22 10:50:00;;;;;;;15.80;7.30;;;8.70;77.20;;;;;;4974386;28;20026;-83
2021/01/22 10:52:26;;;;;;;17.00;7.40;;;8.60;77.40;;;;;;4972480;28;20341;-83
2021/01/22 10:54:51;;;;;;;17.10;8.85;;;8.50;78.50;;;;;;5002470;28;20027;-83
2021/01/22 10:57:17;;;;;;;34.45;15.93;;;8.40;79.40;;;;;;4959192;28;20040;-83
2021/01/22 10:59:43;;;;;;;36.92;17.60;;;8.40;80.20;;;;;;4954753;29;20065;-83
2021/01/22 11:02:09;;;;;;;18.30;8.35;;;8.50;80.00;;;;;;4953720;29;20533;-83
2021/01/22 11:04:35;;;;;;;16.13;6.47;;;8.50;79.70;;;;;;4953434;29;20019;-83
2021/01/22 11:07:03;;;;;;;23.88;13.32;;;8.70;78.80;;;;;;4953733;29;20023;-83
2021/01/22 11:09:30;;;;;;;14.50;7.28;;;8.70;77.90;;;;;;4955232;28;20027;-83
2021/01/22 11:11:56;;;;;;;9.88;5.93;;;8.80;77.60;;;;;;4970682;28;20086;-83
2021/01/22 11:14:22;;;;;;;11.00;5.70;;;8.70;77.00;;;;;;4970137;28;20470;-83
2021/01/22 11:16:47;;;;;;;21.90;11.93;;;8.80;77.10;;;;;;4955360;28;20070;-83
2021/01/22 11:19:13;;;;;;;19.73;8.88;;;8.70;77.10;;;;;;4970258;28;20034;-83
2021/01/22 11:21:39;;;;;;;41.50;19.45;;;8.70;78.30;;;;;;4970472;28;20481;-83
2021/01/22 11:24:05;;;;;;;48.55;25.85;;;8.70;77.10;;;;;;4955321;29;20031;-83
2021/01/22 11:26:32;;;;;;;40.80;16.98;;;8.70;77.20;;;;;;4954378;28;20051;-83
2021/01/22 11:28:57;;;;;;;30.75;12.65;;;8.60;76.90;;;;;;4955442;28;20035;-83
2021/01/22 11:31:23;;;;;;;81.00;41.53;;;8.60;77.20;;;;;;4955019;28;20077;-83
2021/01/22 11:33:48;;;;;;;62.00;29.67;;;8.60;77.00;;;;;;4955293;28;20031;-83
2021/01/22 11:36:14;;;;;;;33.78;14.00;;;8.60;77.00;;;;;;4955270;28;20024;-82
2021/01/22 11:38:40;;;;;;;75.88;36.45;;;8.70;77.10;;;;;;4955035;28;20035;-83
2021/01/22 11:41:05;;;;;;;71.95;33.30;;;8.70;77.00;;;;;;4953969;28;20070;-83
2021/01/22 11:43:31;;;;;;;37.80;16.52;;;8.70;76.90;;;;;;4955380;28;20031;-83
2021/01/22 11:45:57;;;;;;;30.83;13.45;;;8.70;77.20;;;;;;4953859;28;20102;-83
2021/01/22 11:48:23;;;;;;;83.90;37.55;;;8.70;77.20;;;;;;4972038;28;20122;-84
2021/01/22 11:50:49;;;;;;;49.90;21.27;;;8.60;77.40;;;;;;4989293;28;20023;-84
2021/01/22 11:53:14;;;;;;;34.00;12.88;;;8.60;78.10;;;;;;4974260;28;20101;-83
2021/01/22 11:55:41;;;;;;;22.73;9.43;;;8.50;77.70;;;;;;4989323;28;20030;-83
2021/01/22 11:58:07;;;;;;;38.05;16.52;;;8.60;78.50;;;;;;4972913;28;20370;-83
2021/01/22 12:00:33;;;;;;;28.05;11.82;;;8.50;78.60;;;;;;4972552;28;20126;-83
2021/01/22 12:02:59;;;;;;;20.83;9.35;;;8.50;79.10;;;;;;4974159;28;20113;-83
2021/01/22 12:05:25;;;;;;;13.43;5.82;;;8.40;79.30;;;;;;4974029;28;20019;-83
2021/01/22 12:07:51;;;;;;;10.80;6.38;;;8.40;80.00;;;;;;4974063;28;20041;-83
2021/01/22 12:10:17;;;;;;;16.67;7.53;;;8.40;80.50;;;;;;4974012;28;20105;-83
2021/01/22 12:12:42;;;;;;;15.63;6.93;;;8.30;81.00;;;;;;4972776;28;20031;-84
2021/01/22 12:15:09;;;;;;;13.77;6.25;;;8.30;81.10;;;;;;4973978;28;20034;-84
2021/01/22 12:17:34;;;;;;;16.08;5.82;;;8.20;81.90;;;;;;4974016;28;20107;-83
2021/01/22 12:20:00;;;;;;;15.32;8.88;;;8.10;82.20;;;;;;4964330;28;20075;-84
2021/01/22 12:22:26;;;;;;;16.65;7.80;;;8.00;82.60;;;;;;4954517;28;20114;-83
2021/01/22 12:24:51;;;;;;;16.73;7.60;;;7.90;83.30;;;;;;4954906;28;20539;-83
2021/01/22 12:27:17;;;;;;;12.52;6.95;;;7.90;83.70;;;;;;4954535;28;20027;-84
2021/01/22 12:29:43;;;;;;;14.35;7.38;;;7.90;84.50;;;;;;4954050;28;20027;-84
2021/01/22 12:32:09;;;;;;;17.35;7.35;;;7.70;84.80;;;;;;4956891;28;20500;-84
2021/01/22 12:34:34;;;;;;;19.73;9.50;;;7.70;85.80;;;;;;4957757;28;20027;-83
2021/01/22 12:37:00;;;;;;;18.98;9.38;;;7.70;86.30;;;;;;4953158;29;20034;-83
2021/01/22 12:39:26;;;;;;;16.98;7.80;;;7.60;86.90;;;;;;4954768;29;20094;-84